createdAt,value
2022-07-25T00:02:08.869Z,100.00
2022-07-25T00:07:05.513Z,100.00
2022-07-25T00:12:02.145Z,100.00
2022-07-25T00:17:00.300Z,100.00
2022-07-25T00:21:57.701Z,100.00
2022-07-25T00:26:54.279Z,100.00
2022-07-25T00:31:50.797Z,100.00
2022-07-25T00:36:47.303Z,100.00
2022-07-25T00:41:44.452Z,100.00
2022-07-25T00:46:40.967Z,100.00
2022-07-25T00:51:37.955Z,100.00
2022-07-25T00:56:34.577Z,100.00
2022-07-25T01:01:31.134Z,100.00
2022-07-25T01:06:27.818Z,100.00
2022-07-25T01:11:24.800Z,100.00
2022-07-25T01:16:21.381Z,100.00
2022-07-25T01:21:17.868Z,100.00
2022-07-25T01:26:14.230Z,100.00
2022-07-25T01:31:10.883Z,100.00
2022-07-25T01:36:07.936Z,100.00
2022-07-25T01:41:04.510Z,100.00
2022-07-25T01:46:01.078Z,100.00
2022-07-25T01:50:57.478Z,100.00
2022-07-25T01:55:53.874Z,100.00
2022-07-25T02:00:50.876Z,100.00
2022-07-25T02:05:47.258Z,100.00
2022-07-25T02:10:43.646Z,100.00
2022-07-25T02:15:40.211Z,100.00
2022-07-25T02:20:36.585Z,100.00
2022-07-25T02:25:34.070Z,100.00
2022-07-25T02:30:30.623Z,100.00
2022-07-25T02:35:27.212Z,100.00
2022-07-25T02:40:23.643Z,100.00
2022-07-25T02:45:20.201Z,100.00
2022-07-25T02:50:16.675Z,100.00
2022-07-25T02:55:13.344Z,100.00
2022-07-25T03:00:10.381Z,100.00
2022-07-25T03:05:12.022Z,100.00
2022-07-25T03:10:11.366Z,100.00
2022-07-25T03:15:09.313Z,100.00
2022-07-25T03:20:06.543Z,100.00
2022-07-25T03:25:03.937Z,100.00
2022-07-25T03:30:00.397Z,100.00
2022-07-25T03:34:57.188Z,100.00
2022-07-25T03:39:53.558Z,100.00
2022-07-25T03:44:50.262Z,100.00
2022-07-25T03:49:46.688Z,100.00
2022-07-25T03:54:43.086Z,100.00
2022-07-25T03:59:39.572Z,100.00
2022-07-25T04:04:36.078Z,100.00
2022-07-25T04:09:33.598Z,100.00
2022-07-25T04:14:30.249Z,100.00
2022-07-25T04:19:28.790Z,100.00
2022-07-25T04:24:25.412Z,100.00
2022-07-25T04:29:21.882Z,100.00
2022-07-25T04:34:18.270Z,100.00
2022-07-25T04:39:14.681Z,100.00
2022-07-25T04:44:11.032Z,100.00
2022-07-25T04:49:07.515Z,100.00
2022-07-25T04:54:04.772Z,100.00
2022-07-25T04:59:06.879Z,100.00
2022-07-25T05:04:03.860Z,100.00
2022-07-25T05:09:00.489Z,100.00
2022-07-25T05:13:57.011Z,100.00
2022-07-25T05:18:53.412Z,100.00
2022-07-25T05:23:49.823Z,100.00
2022-07-25T05:28:46.248Z,100.00
2022-07-25T05:33:42.828Z,100.00
2022-07-25T05:38:39.252Z,100.00
2022-07-25T05:43:35.674Z,100.00
2022-07-25T05:48:32.164Z,100.00
2022-07-25T05:53:28.975Z,100.00
2022-07-25T05:58:29.718Z,100.00
2022-07-25T06:03:26.695Z,100.00
2022-07-25T06:08:23.910Z,100.00
2022-07-25T06:13:21.297Z,100.00
2022-07-25T06:18:20.019Z,100.00
2022-07-25T06:23:16.814Z,100.00
2022-07-25T06:28:14.633Z,97.12
2022-07-25T06:33:15.132Z,99.37
2022-07-25T06:38:11.616Z,100.00
2022-07-25T06:43:08.260Z,100.00
2022-07-25T06:48:05.097Z,100.00
2022-07-25T06:53:01.418Z,100.00
2022-07-25T06:57:58.049Z,100.00
2022-07-25T07:02:58.290Z,100.00
2022-07-25T07:07:55.335Z,100.00
2022-07-25T07:13:02.058Z,100.00
2022-07-25T07:17:58.696Z,100.00
2022-07-25T07:22:55.150Z,98.67
2022-07-25T07:27:53.389Z,94.69
2022-07-25T07:32:49.912Z,97.33
2022-07-25T07:37:46.699Z,96.18
2022-07-25T07:42:45.472Z,100.00
2022-07-25T07:47:42.246Z,98.02
2022-07-25T07:52:38.575Z,90.91
2022-07-25T07:57:34.967Z,90.82
2022-07-25T08:02:31.501Z,89.48
2022-07-25T08:07:27.977Z,88.80
2022-07-25T08:12:24.321Z,84.42
2022-07-25T08:17:25.051Z,79.71
2022-07-25T08:22:24.782Z,77.40
2022-07-25T08:27:21.155Z,69.76
2022-07-25T08:32:17.504Z,71.83
2022-07-25T08:37:14.159Z,72.58
2022-07-25T08:42:11.501Z,69.50
2022-07-25T08:47:09.750Z,61.19
2022-07-25T08:52:09.531Z,69.25
2022-07-25T08:57:06.015Z,66.96
2022-07-25T09:02:06.848Z,62.28
2022-07-25T09:07:08.084Z,61.26
2022-07-25T09:12:07.554Z,59.53
2022-07-25T09:17:06.674Z,56.88
2022-07-25T09:22:19.205Z,59.53
2022-07-25T09:27:17.527Z,54.66
2022-07-25T09:32:23.821Z,57.41
2022-07-25T09:37:26.831Z,56.87
2022-07-25T09:42:28.864Z,58.52
2022-07-25T09:47:25.332Z,57.01
2022-07-25T09:52:21.705Z,58.07
2022-07-25T09:57:18.231Z,58.67
2022-07-25T10:02:33.020Z,59.89
2022-07-25T10:07:31.678Z,59.81
2022-07-25T10:12:28.241Z,59.42
2022-07-25T10:17:24.695Z,61.60
2022-07-25T10:22:39.728Z,61.51
2022-07-25T10:27:48.592Z,60.93
2022-07-25T10:32:50.950Z,62.21
2022-07-25T10:37:51.343Z,62.48
2022-07-25T10:42:47.718Z,61.12
2022-07-25T10:47:53.767Z,63.96
2022-07-25T10:53:00.207Z,61.06
2022-07-25T10:58:17.224Z,59.89
2022-07-25T11:03:18.085Z,56.31
2022-07-25T11:08:22.949Z,55.06
2022-07-25T11:13:19.568Z,53.19
2022-07-25T11:18:18.403Z,54.99
2022-07-25T11:23:21.674Z,57.07
2022-07-25T11:28:18.042Z,56.71
2022-07-25T11:33:17.699Z,55.12
2022-07-25T11:38:14.916Z,56.77
2022-07-25T11:43:23.490Z,55.22
2022-07-25T11:48:22.828Z,57.25
2022-07-25T11:53:19.855Z,59.94
2022-07-25T11:58:17.635Z,61.70
2022-07-25T12:03:21.098Z,61.80
2022-07-25T12:08:20.086Z,61.10
2022-07-25T12:13:28.737Z,64.43
2022-07-25T12:18:25.938Z,63.99
2022-07-25T12:23:24.882Z,63.73
2022-07-25T12:28:22.601Z,62.19
2022-07-25T12:33:20.006Z,57.87
2022-07-25T12:38:22.086Z,57.95
2022-07-25T12:43:23.415Z,57.75
2022-07-25T12:48:21.685Z,56.09
2022-07-25T12:53:22.268Z,58.85
2022-07-25T12:58:22.034Z,56.11
2022-07-25T13:03:20.645Z,58.17
2022-07-25T13:08:21.460Z,55.81
2022-07-25T13:13:18.385Z,56.73
2022-07-25T13:18:15.064Z,57.22
2022-07-25T13:23:11.558Z,58.75
2022-07-25T13:28:10.846Z,59.40
2022-07-25T13:33:08.903Z,62.41
2022-07-25T13:38:05.366Z,63.50
2022-07-25T13:43:01.814Z,61.83
2022-07-25T13:48:19.048Z,61.96
2022-07-25T13:53:15.196Z,67.05
2022-07-25T13:58:11.616Z,66.23
2022-07-25T14:03:08.347Z,68.57
2022-07-25T14:08:05.305Z,67.48
2022-07-25T14:13:02.125Z,69.33
2022-07-25T14:17:58.766Z,69.40
2022-07-25T14:22:55.232Z,69.57
2022-07-25T14:27:51.727Z,70.81
2022-07-25T14:32:48.305Z,76.48
2022-07-25T14:37:44.782Z,71.11
2022-07-25T14:42:41.901Z,72.47
2022-07-25T14:47:40.424Z,70.20
2022-07-25T14:52:37.322Z,74.13
2022-07-25T14:57:33.848Z,73.27
2022-07-25T15:02:30.329Z,72.38
2022-07-25T15:07:26.731Z,74.35
2022-07-25T15:12:23.292Z,76.12
2022-07-25T15:17:19.666Z,81.58
2022-07-25T15:22:16.099Z,83.68
2022-07-25T15:27:12.645Z,86.63
2022-07-25T15:32:09.507Z,88.71
2022-07-25T15:37:05.881Z,87.07
2022-07-25T15:42:02.338Z,89.14
2022-07-25T15:46:59.039Z,89.84
2022-07-25T15:51:55.456Z,96.46
2022-07-25T15:56:52.664Z,100.00
2022-07-25T16:01:49.167Z,100.00
2022-07-25T16:06:45.595Z,100.00
2022-07-25T16:11:41.958Z,100.00
2022-07-25T16:16:38.387Z,100.00
2022-07-25T16:21:34.884Z,100.00
2022-07-25T16:26:31.316Z,100.00
2022-07-25T16:31:27.839Z,100.00
2022-07-25T16:36:25.412Z,100.00
2022-07-25T16:41:21.919Z,100.00
2022-07-25T16:46:18.509Z,100.00
2022-07-25T16:51:15.406Z,100.00
2022-07-25T16:56:11.851Z,100.00
2022-07-25T17:01:08.715Z,100.00
2022-07-25T17:06:06.498Z,100.00
2022-07-25T17:11:03.370Z,100.00
2022-07-25T17:15:59.883Z,100.00
2022-07-25T17:20:56.427Z,100.00
2022-07-25T17:25:53.616Z,100.00
2022-07-25T17:30:50.324Z,100.00
2022-07-25T17:35:46.771Z,100.00
2022-07-25T17:40:43.237Z,100.00
2022-07-25T17:45:39.700Z,100.00
2022-07-25T17:50:36.215Z,100.00
2022-07-25T17:55:36.838Z,100.00
2022-07-25T18:00:35.091Z,100.00
2022-07-25T18:05:31.776Z,100.00
2022-07-25T18:10:28.437Z,100.00
2022-07-25T18:15:24.993Z,100.00
2022-07-25T18:20:21.598Z,100.00
2022-07-25T18:25:18.043Z,100.00
2022-07-25T18:30:15.920Z,100.00
2022-07-25T18:35:13.161Z,100.00
2022-07-25T18:40:10.075Z,100.00
2022-07-25T18:45:07.090Z,100.00
2022-07-25T18:50:04.836Z,100.00
2022-07-25T18:55:02.535Z,100.00
2022-07-25T19:00:02.787Z,100.00
2022-07-25T19:04:59.976Z,100.00
2022-07-25T19:09:56.609Z,100.00
2022-07-25T19:14:54.571Z,100.00
2022-07-25T19:19:52.139Z,100.00
2022-07-25T19:24:48.636Z,100.00
2022-07-25T19:29:45.107Z,100.00
2022-07-25T19:34:41.559Z,100.00
2022-07-25T19:39:38.125Z,100.00
2022-07-25T19:44:34.570Z,100.00
2022-07-25T19:49:31.031Z,100.00
2022-07-25T19:54:27.466Z,100.00
2022-07-25T19:59:23.894Z,100.00
2022-07-25T20:04:20.384Z,100.00
2022-07-25T20:09:17.482Z,100.00
2022-07-25T20:14:13.946Z,100.00
2022-07-25T20:19:11.945Z,100.00
2022-07-25T20:24:08.728Z,100.00
2022-07-25T20:29:05.587Z,100.00
2022-07-25T20:34:02.508Z,100.00
2022-07-25T20:38:58.998Z,100.00
2022-07-25T20:43:55.472Z,100.00
2022-07-25T20:48:51.903Z,100.00
2022-07-25T20:53:53.279Z,100.00
2022-07-25T20:58:50.193Z,100.00
2022-07-25T21:03:46.597Z,100.00
2022-07-25T21:08:43.157Z,100.00
2022-07-25T21:13:39.551Z,100.00
2022-07-25T21:18:36.100Z,100.00
2022-07-25T21:23:32.708Z,100.00
2022-07-25T21:28:29.133Z,100.00
2022-07-25T21:33:25.511Z,100.00
2022-07-25T21:38:26.853Z,100.00
2022-07-25T21:43:25.481Z,100.00
2022-07-25T21:48:42.990Z,100.00
2022-07-25T21:53:40.167Z,100.00
2022-07-25T21:58:36.602Z,100.00
2022-07-25T22:03:33.217Z,100.00
2022-07-25T22:08:29.584Z,100.00
2022-07-25T22:13:25.967Z,100.00
2022-07-25T22:18:22.629Z,100.00
2022-07-25T22:23:19.013Z,100.00
2022-07-25T22:28:15.476Z,100.00
2022-07-25T22:33:11.871Z,100.00
2022-07-25T22:38:09.172Z,100.00
2022-07-25T22:43:05.550Z,100.00
2022-07-25T22:48:01.896Z,100.00
2022-07-25T22:52:58.265Z,100.00
2022-07-25T22:57:54.627Z,100.00
2022-07-25T23:02:51.043Z,100.00
2022-07-25T23:07:47.451Z,100.00
2022-07-25T23:12:43.929Z,100.00
2022-07-25T23:17:40.342Z,100.00
2022-07-25T23:22:36.800Z,100.00
2022-07-25T23:27:34.947Z,100.00
2022-07-25T23:32:31.645Z,100.00
2022-07-25T23:37:28.012Z,100.00
2022-07-25T23:42:24.417Z,100.00
2022-07-25T23:47:25.637Z,100.00
2022-07-25T23:52:35.462Z,100.00
2022-07-25T23:57:32.168Z,100.00
